Goehner, Nebraska
Current Conditions -  °F | °C
As of 9:15 AM on Wednesday 26 Nov 2014 (Local Time) from KJYR Reporting Station
Overcast Overcast  
Wind Chill: 13°   Ceiling: 1300
Heat Index: 28°   Visibility: 10mi
Dew Point: 25°   Wind: 28mph
Humidity: 86%   Direction: 330°NNW
Pressure: 30.08"   Gusts: 36mph
Location:  40.83°N, 97.22°W
Report Text: KJYR 261515Z AUTO 33024G31KT 10SM OVC013 M02/M04 A3008 RMK AO2
Loading
Personal Weather Stations






























Interactive Weather Map New forecast layout! Learn more

10-Day Weather Forecast

Advertisements
Track Severe Weather on mobile